Time;durP1;ratioP1;P1;durP2;ratioP2;P2;SDS_P1;SDS_P2;PMS_P1;PMS_P2;Temp;Humidity;BMP_temperature;BMP_pressure;BME280_temperature;BME280_humidity;BME280_pressure;Samples;Min_cycle;Max_cycle;Signal;HPM_P1;HPM_P2
2021/12/15 00:00:17;;;;;;;;;40.20;33.80;;;;;11.99;64.16;102552.94;2058894;28;45478;-60
2021/12/15 00:01:18;;;;;;;;;38.40;30.80;;;;;11.98;63.96;102560.03;2051978;28;47344;-58
2021/12/15 00:02:21;;;;;;;;;46.00;37.75;;;;;11.99;64.04;102558.28;2049837;28;47855;-59
2021/12/15 00:03:21;;;;;;;;;40.80;33.80;;;;;11.98;63.98;102554.72;2060194;28;47939;-59
2021/12/15 00:04:22;;;;;;;;;31.50;30.25;;;;;11.99;63.91;102552.94;2059527;28;47158;-57
2021/12/15 00:05:25;;;;;;;;;36.25;32.25;;;;;11.98;63.88;102553.84;2061829;28;48308;-58
2021/12/15 00:06:26;;;;;;;;;39.00;35.20;;;;;11.97;64.21;102552.94;2060444;28;48340;-57
2021/12/15 00:07:27;;;;;;;;;39.25;34.00;;;;;11.97;63.79;102552.94;2060189;28;48025;-59
2021/12/15 00:08:27;;;;;;;;;45.20;33.20;;;;;11.97;64.00;102547.63;2060285;28;47122;-59
2021/12/15 00:09:29;;;;;;;;;36.50;32.75;;;;;11.97;63.77;102544.97;2062354;28;47050;-58
2021/12/15 00:10:30;;;;;;;;;42.20;36.00;;;;;11.97;64.03;102550.28;2062559;28;47578;-58
2021/12/15 00:11:36;;;;;;;;;38.20;32.60;;;;;11.95;63.75;102546.75;2059455;28;48208;-58
2021/12/15 00:12:36;;;;;;;;;41.80;34.00;;;;;11.96;63.86;102542.31;2062885;28;46209;-58
2021/12/15 00:13:39;;;;;;;;;31.75;30.00;;;;;11.94;63.79;102542.31;2060037;28;48561;-59
2021/12/15 00:14:42;;;;;;;;;37.60;32.00;;;;;11.96;64.12;102542.31;2062149;28;47889;-59
2021/12/15 00:15:44;;;;;;;;;37.80;33.20;;;;;11.96;64.01;102548.50;2060650;28;47143;-63
2021/12/15 00:16:47;;;;;;;;;39.80;33.00;;;;;11.96;63.83;102553.84;2062472;28;48512;-58
2021/12/15 00:17:47;;;;;;;;;34.80;31.20;;;;;11.96;63.97;102547.63;2052198;28;47116;-58
2021/12/15 00:18:48;;;;;;;;;33.50;31.00;;;;;11.94;63.86;102541.38;2053475;28;46211;-59
2021/12/15 00:19:48;;;;;;;;;42.75;34.25;;;;;11.93;63.77;102540.50;2058260;28;47392;-57
2021/12/15 00:20:49;;;;;;;;;24.50;23.75;;;;;11.93;63.70;102540.50;2061059;28;47517;-57
2021/12/15 00:21:50;;;;;;;;;41.00;34.00;;;;;11.94;63.90;102544.06;2061242;28;47216;-58
2021/12/15 00:22:52;;;;;;;;;37.00;31.75;;;;;11.94;63.82;102546.72;2062761;28;45273;-57
2021/12/15 00:23:53;;;;;;;;;34.20;32.80;;;;;11.94;63.94;102547.63;2061391;28;47429;-59
2021/12/15 00:24:53;;;;;;;;;37.00;33.00;;;;;11.94;63.86;102542.31;2063714;28;46871;-58
2021/12/15 00:25:54;;;;;;;;;39.25;33.25;;;;;11.94;64.01;102544.97;2059085;28;47159;-56
2021/12/15 00:26:55;;;;;;;;;39.25;34.25;;;;;11.93;63.68;102542.28;2063186;28;47875;-58
2021/12/15 00:27:55;;;;;;;;;37.40;32.80;;;;;11.93;63.97;102532.53;2058312;28;48052;-59
2021/12/15 00:28:57;;;;;;;;;36.25;32.75;;;;;11.94;63.93;102536.06;2063830;28;49065;-58
2021/12/15 00:29:58;;;;;;;;;39.40;33.00;;;;;11.93;64.03;102537.84;2059746;28;46216;-59
2021/12/15 00:30:59;;;;;;;;;46.75;35.25;;;;;11.94;63.85;102544.97;2061070;28;48161;-56
2021/12/15 00:32:03;;;;;;;;;42.00;34.75;;;;;11.95;63.82;102543.19;2058981;28;47444;-59
2021/12/15 00:33:06;;;;;;;;;39.00;33.20;;;;;11.92;63.80;102538.72;2063612;28;47824;-57
2021/12/15 00:34:07;;;;;;;;;35.60;32.60;;;;;11.93;64.02;102539.63;2057221;28;47669;-58
2021/12/15 00:35:09;;;;;;;;;36.25;31.00;;;;;11.93;63.72;102540.50;2063589;28;47226;-59
2021/12/15 00:36:10;;;;;;;;;43.80;34.80;;;;;11.93;63.93;102536.97;2057519;28;48410;-57
2021/12/15 00:37:11;;;;;;;;;39.80;34.20;;;;;11.92;63.81;102541.38;2066454;28;47848;-58
2021/12/15 00:38:12;;;;;;;;;38.00;33.75;;;;;11.93;63.72;102534.28;2061332;28;46999;-59
2021/12/15 00:39:17;;;;;;;;;23.20;19.80;;;;;11.92;63.77;102533.41;2062643;28;47058;-59
2021/12/15 00:40:21;;;;;;;;;38.20;34.40;;;;;11.93;63.77;102540.50;2061314;28;47272;-58
2021/12/15 00:41:21;;;;;;;;;35.20;32.80;;;;;11.93;63.94;102537.84;2060234;28;48084;-59
2021/12/15 00:42:22;;;;;;;;;32.75;31.25;;;;;11.93;63.71;102539.63;2062789;28;45236;-60
2021/12/15 00:43:23;;;;;;;;;38.50;34.75;;;;;11.91;63.75;102536.97;2061779;28;47867;-58
2021/12/15 00:44:24;;;;;;;;;12.60;7.80;;;;;11.91;63.96;102542.28;2059800;28;47481;-58
2021/12/15 00:45:25;;;;;;;;;39.80;35.60;;;;;11.91;63.81;102534.28;2061028;28;48121;-59
2021/12/15 00:46:26;;;;;;;;;37.20;33.40;;;;;11.91;63.90;102531.63;2063006;28;48349;-58
2021/12/15 00:47:26;;;;;;;;;39.50;33.75;;;;;11.91;63.87;102539.63;2062450;28;47403;-58
2021/12/15 00:48:27;;;;;;;;;42.00;34.50;;;;;11.91;63.77;102536.06;2061853;28;47687;-58
2021/12/15 00:49:28;;;;;;;;;39.40;33.60;;;;;11.91;63.97;102542.28;2062596;28;47512;-59
2021/12/15 00:50:32;;;;;;;;;38.75;34.00;;;;;11.92;63.82;102544.06;2062668;28;48683;-59
2021/12/15 00:51:34;;;;;;;;;39.80;34.80;;;;;11.92;63.70;102543.16;2059827;28;47479;-58
2021/12/15 00:52:37;;;;;;;;;40.40;35.20;;;;;11.91;63.81;102536.06;2065538;28;47537;-58
2021/12/15 00:53:37;;;;;;;;;45.20;37.40;;;;;11.91;63.84;102539.63;2059914;28;46348;-59
2021/12/15 00:54:38;;;;;;;;;40.75;33.75;;;;;11.91;63.79;102538.72;2061609;28;48200;-58
2021/12/15 00:55:39;;;;;;;;;41.80;37.20;;;;;11.90;63.80;102540.50;2059403;28;45344;-58
2021/12/15 00:56:40;;;;;;;;;41.20;35.20;;;;;11.91;63.82;102536.06;2063014;28;48261;-58
2021/12/15 00:57:41;;;;;;;;;36.50;31.00;;;;;11.92;63.72;102540.50;2059095;28;47296;-59
2021/12/15 00:58:41;;;;;;;;;37.25;33.25;;;;;11.90;63.82;102543.16;2063599;28;47010;-58
2021/12/15 00:59:42;;;;;;;;;41.75;36.00;;;;;11.91;63.82;102530.75;2058491;28;48159;-58
2021/12/15 01:00:50;;;;;;;;;43.75;36.00;;;;;11.91;63.97;102541.38;2060472;28;47953;-58
2021/12/15 01:01:53;;;;;;;;;39.20;34.00;;;;;11.92;63.81;102540.50;2060408;28;49300;-58
2021/12/15 01:02:55;;;;;;;;;45.80;37.80;;;;;11.92;63.73;102543.16;2063034;28;47959;-58
2021/12/15 01:03:56;;;;;;;;;44.20;36.60;;;;;11.91;63.87;102534.28;2057645;28;47269;-59
2021/12/15 01:04:56;;;;;;;;;37.00;33.75;;;;;11.91;63.89;102534.28;2063301;28;47975;-59
2021/12/15 01:06:05;;;;;;;;;42.00;34.75;;;;;11.93;63.72;102543.16;2062455;28;48358;-59
2021/12/15 01:07:08;;;;;;;;;41.20;34.60;;;;;11.93;63.79;102543.16;2061656;28;47388;-57
2021/12/15 01:08:12;;;;;;;;;43.00;35.60;;;;;11.92;63.87;102537.84;2060290;28;49052;-58
2021/12/15 01:09:20;;;;;;;;;38.60;35.20;;;;;11.93;63.88;102539.63;2062199;28;47249;-59
2021/12/15 01:10:29;;;;;;;;;42.00;36.80;;;;;11.93;63.98;102540.50;2061459;28;47187;-69
2021/12/15 01:14:34;;;;;;;;;41.80;35.80;;;;;11.93;63.88;102539.63;2028107;28;48706;-57
2021/12/15 01:19:48;;;;;;;;;38.20;33.20;;;;;11.91;63.72;102536.06;2056563;28;47474;-58
2021/12/15 01:20:54;;;;;;;;;38.20;34.80;;;;;11.92;63.80;102540.50;2060382;28;47929;-58
2021/12/15 01:21:55;;;;;;;;;37.40;34.40;;;;;11.91;63.72;102536.97;2058231;28;48377;-58
2021/12/15 01:23:02;;;;;;;;;37.60;31.80;;;;;11.91;63.77;102542.28;2062924;28;47457;-58
2021/12/15 01:24:04;;;;;;;;;40.20;34.20;;;;;11.91;63.30;102538.72;2060393;28;48412;-58
2021/12/15 01:25:13;;;;;;;;;42.40;34.20;;;;;11.91;63.58;102539.63;2062959;28;46700;-58
2021/12/15 01:26:15;;;;;;;;;39.40;36.20;;;;;11.91;63.74;102544.06;2058386;28;47534;-58
2021/12/15 01:27:16;;;;;;;;;37.60;33.00;;;;;11.90;63.62;102544.94;2061820;28;48766;-57
2021/12/15 01:28:17;;;;;;;;;42.00;36.25;;;;;11.89;63.74;102536.06;2061058;28;47461;-56
2021/12/15 01:29:18;;;;;;;;;27.00;26.25;;;;;11.89;63.74;102535.19;2061577;28;47706;-57
2021/12/15 01:30:25;;;;;;;;;38.25;33.50;;;;;11.90;63.72;102539.63;2061985;28;48534;-58
2021/12/15 01:31:25;;;;;;;;;40.00;33.60;;;;;11.89;63.78;102533.41;2058038;28;48168;-57
2021/12/15 01:32:26;;;;;;;;;39.50;34.00;;;;;11.89;63.57;102536.06;2059756;28;47390;-58
2021/12/15 01:33:27;;;;;;;;;40.50;32.75;;;;;11.89;63.60;102535.19;2060865;28;45976;-57
2021/12/15 01:34:28;;;;;;;;;38.20;34.80;;;;;11.89;63.78;102540.50;2059897;28;47294;-58
2021/12/15 01:35:29;;;;;;;;;37.50;33.50;;;;;11.87;63.70;102532.53;2055415;28;47281;-58
2021/12/15 01:36:30;;;;;;;;;39.00;33.00;;;;;11.89;63.80;102537.84;2059908;28;48453;-57
2021/12/15 01:37:30;;;;;;;;;38.75;33.00;;;;;11.90;63.59;102534.28;2060345;28;48134;-58
2021/12/15 01:38:33;;;;;;;;;36.00;33.75;;;;;11.90;63.51;102534.28;2062800;28;47351;-58
2021/12/15 01:39:33;;;;;;;;;38.00;33.40;;;;;11.90;63.59;102535.19;2061351;28;47072;-57
2021/12/15 01:40:38;;;;;;;;;35.25;32.75;;;;;11.90;63.43;102540.50;2062101;28;47293;-57
2021/12/15 01:41:39;;;;;;;;;45.60;34.80;;;;;11.91;63.61;102541.38;2058580;28;48618;-58
2021/12/15 01:42:39;;;;;;;;;37.50;32.75;;;;;11.90;63.82;102537.84;2062341;28;45316;-58
2021/12/15 01:46:54;;;;;;;;;37.75;33.25;;;;;11.90;63.74;102535.19;2059309;28;47267;-57
2021/12/15 01:48:07;;;;;;;;;35.60;32.00;;;;;11.91;63.66;102538.72;2060115;28;48342;-57
2021/12/15 01:49:15;;;;;;;;;39.60;34.20;;;;;11.90;63.48;102537.84;2055108;28;45879;-57
2021/12/15 01:50:16;;;;;;;;;37.60;30.60;;;;;11.91;63.68;102536.06;2060502;28;47117;-59
2021/12/15 01:51:16;;;;;;;;;36.25;33.75;;;;;11.91;63.52;102538.72;2058016;28;47238;-58
2021/12/15 01:52:24;;;;;;;;;37.50;33.00;;;;;11.91;63.46;102541.38;2058453;28;47218;-57
2021/12/15 01:53:25;;;;;;;;;34.40;32.40;;;;;11.90;63.53;102539.63;2061117;28;47540;-59
2021/12/15 01:54:28;;;;;;;;;39.50;34.00;;;;;11.91;63.46;102544.06;2059667;28;47132;-57
2021/12/15 01:55:29;;;;;;;;;37.20;33.00;;;;;11.90;63.55;102542.28;2059184;28;48168;-59
2021/12/15 01:56:29;;;;;;;;;35.00;30.25;;;;;11.91;63.77;102542.28;2061240;28;48326;-58
2021/12/15 01:57:31;;;;;;;;;41.50;33.25;;;;;11.91;63.78;102533.41;2061140;28;47691;-58
2021/12/15 01:58:32;;;;;;;;;33.60;31.40;;;;;11.90;63.49;102545.81;2062846;28;48527;-58
2021/12/15 01:59:34;;;;;;;;;35.60;30.60;;;;;11.90;63.46;102539.63;2060007;28;47231;-58
2021/12/15 02:00:41;;;;;;;;;32.80;31.60;;;;;11.90;63.65;102548.50;2059168;28;48187;-59
2021/12/15 02:01:42;;;;;;;;;36.00;33.00;;;;;11.91;63.60;102547.59;2058878;28;47562;-59
2021/12/15 02:02:43;;;;;;;;;34.75;30.75;;;;;11.91;63.44;102550.25;2062015;28;48263;-59
2021/12/15 02:03:43;;;;;;;;;30.50;27.75;;;;;11.90;63.56;102547.59;2058561;28;47424;-58
2021/12/15 02:04:45;;;;;;;;;37.25;33.25;;;;;11.90;63.58;102543.16;2061697;28;47923;-58
2021/12/15 02:05:46;;;;;;;;;33.80;29.00;;;;;11.92;63.57;102551.16;2058106;28;47391;-58
2021/12/15 02:06:48;;;;;;;;;33.00;29.75;;;;;11.92;63.47;102545.81;2061187;28;46996;-59
2021/12/15 02:07:48;;;;;;;;;37.20;32.60;;;;;11.92;63.36;102552.03;2059723;28;47252;-59
2021/12/15 02:08:49;;;;;;;;;41.00;33.75;;;;;11.91;63.57;102560.00;2061711;28;46466;-58
2021/12/15 02:10:53;;;;;;;;;36.00;31.60;;;;;11.93;63.41;102555.56;2060694;28;48591;-57
2021/12/15 02:11:54;;;;;;;;;32.40;31.40;;;;;11.92;63.53;102554.69;2060184;28;48003;-58
2021/12/15 02:12:59;;;;;;;;;36.00;31.00;;;;;11.94;63.55;102557.34;2062908;28;47291;-57
2021/12/15 02:14:00;;;;;;;;;33.80;30.40;;;;;11.93;63.52;102550.25;2057244;28;48285;-58
2021/12/15 02:15:04;;;;;;;;;35.20;31.00;;;;;11.93;63.61;102559.13;2062878;28;47673;-58
2021/12/15 02:16:07;;;;;;;;;38.20;32.80;;;;;11.95;63.61;102556.50;2058013;28;46145;-57
2021/12/15 02:17:07;;;;;;;;;34.20;31.80;;;;;11.94;63.51;102560.94;2063028;28;48441;-58
2021/12/15 02:18:11;;;;;;;;;38.25;33.00;;;;;11.94;63.46;102560.00;2059179;28;47578;-57
2021/12/15 02:19:12;;;;;;;;;35.20;32.20;;;;;11.94;63.64;102560.00;2054558;28;47667;-57
2021/12/15 02:20:16;;;;;;;;;31.50;30.00;;;;;11.94;63.38;102555.63;2053336;28;47108;-58
2021/12/15 02:21:24;;;;;;;;;40.60;34.60;;;;;11.94;63.58;102560.94;2052892;28;47465;-58
2021/12/15 02:22:27;;;;;;;;;34.00;29.00;;;;;11.94;63.41;102563.59;2061509;28;48588;-58
2021/12/15 02:23:40;;;;;;;;;35.40;32.20;;;;;11.94;63.67;102568.00;2060288;28;48358;-58
2021/12/15 02:24:42;;;;;;;;;37.20;33.00;;;;;11.94;63.68;102570.66;2061542;28;47226;-58
2021/12/15 02:25:43;;;;;;;;;37.60;34.40;;;;;11.95;63.60;102569.81;2060607;28;48709;-63
2021/12/15 02:26:49;;;;;;;;;39.25;35.00;;;;;11.96;63.69;102566.25;2062378;28;48163;-58
2021/12/15 02:27:50;;;;;;;;;37.00;33.00;;;;;11.96;63.69;102563.59;2060143;28;46276;-58
2021/12/15 02:28:55;;;;;;;;;38.00;32.00;;;;;11.96;63.59;102567.13;2061939;28;48799;-58
2021/12/15 02:30:02;;;;;;;;;41.60;35.60;;;;;11.96;63.76;102564.47;2059017;28;47473;-58
2021/12/15 02:31:37;;;;;;;;;42.20;33.40;;;;;11.97;63.44;102565.38;2058837;28;47949;-59
2021/12/15 02:32:59;;;;;;;;;29.60;26.60;;;;;11.96;63.70;102564.47;2062851;28;48001;-59
2021/12/15 02:37:37;;;;;;;;;37.20;31.80;;;;;11.95;63.69;102561.81;2057258;28;47593;-59
2021/12/15 02:38:42;;;;;;;;;38.00;34.25;;;;;11.95;63.48;102562.72;2063258;28;48175;-58
2021/12/15 02:40:06;;;;;;;;;37.20;31.40;;;;;11.95;63.76;102560.03;2058788;28;47005;-59
2021/12/15 02:41:20;;;;;;;;;39.40;34.00;;;;;11.95;63.47;102554.72;2059304;28;47890;-58
2021/12/15 02:42:28;;;;;;;;;40.00;35.60;;;;;11.95;63.49;102560.03;2061865;28;46174;-58
2021/12/15 02:43:28;;;;;;;;;38.20;33.20;;;;;11.97;63.71;102568.03;2061713;28;47296;-57
2021/12/15 02:44:29;;;;;;;;;31.50;30.00;;;;;11.95;63.52;102560.03;2061551;28;46286;-57
2021/12/15 02:45:31;;;;;;;;;33.25;30.50;;;;;11.96;63.60;102552.94;2062089;28;47947;-58
2021/12/15 02:46:33;;;;;;;;;33.20;29.80;;;;;11.95;63.60;102561.81;2062834;28;47337;-58
2021/12/15 02:47:34;;;;;;;;;30.60;29.60;;;;;11.95;63.51;102560.03;2060190;28;47394;-57
2021/12/15 02:48:34;;;;;;;;;32.75;30.50;;;;;11.95;63.56;102562.72;2062835;28;47224;-58
2021/12/15 02:49:35;;;;;;;;;30.00;28.50;;;;;11.96;63.57;102566.25;2060695;28;47478;-58
2021/12/15 02:50:37;;;;;;;;;41.00;34.50;;;;;11.96;63.42;102561.81;2060394;28;45819;-58
2021/12/15 02:51:40;;;;;;;;;26.20;23.00;;;;;11.97;63.40;102560.03;2057929;28;47356;-59
2021/12/15 02:52:41;;;;;;;;;33.20;30.00;;;;;11.97;63.45;102562.72;2062502;28;47401;-58
2021/12/15 02:53:42;;;;;;;;;28.50;27.50;;;;;11.97;63.46;102557.38;2062266;28;47103;-58
2021/12/15 02:54:42;;;;;;;;;28.40;26.20;;;;;11.97;63.50;102560.03;2061778;28;47582;-58
2021/12/15 02:55:43;;;;;;;;;30.25;27.25;;;;;11.98;63.23;102559.16;2056751;28;47946;-59
2021/12/15 02:56:45;;;;;;;;;29.00;27.20;;;;;11.98;63.40;102559.16;2061216;28;47553;-61
2021/12/15 02:57:47;;;;;;;;;26.20;26.00;;;;;11.98;63.17;102559.16;2060939;28;47414;-58
2021/12/15 02:58:53;;;;;;;;;27.60;26.60;;;;;11.97;63.44;102555.63;2063756;28;47773;-58
2021/12/15 03:00:02;;;;;;;;;28.60;27.20;;;;;11.98;63.22;102562.72;2061785;28;48088;-57
2021/12/15 03:01:18;;;;;;;;;33.00;31.60;;;;;11.98;63.22;102565.38;2050814;28;48069;-57
2021/12/15 03:04:09;;;;;;;;;36.00;32.20;;;;;11.97;63.20;102555.63;2061750;28;47473;-58
2021/12/15 03:05:00;;;;;;;;;27.80;26.20;;;;;11.99;63.13;102558.28;2063135;28;47432;-58
2021/12/15 03:06:14;;;;;;;;;34.20;31.00;;;;;11.98;63.34;102557.38;2059757;28;47589;-58
2021/12/15 03:07:27;;;;;;;;;28.60;27.00;;;;;11.98;63.10;102557.38;2062395;28;48546;-56
2021/12/15 03:08:54;;;;;;;;;27.60;26.60;;;;;11.97;63.23;102555.63;2060265;28;47083;-57
2021/12/15 03:15:51;;;;;;;;;27.80;23.40;;;;;11.97;63.30;102547.63;2022779;29;47922;-58
2021/12/15 03:16:45;;;;;;;;;30.00;26.80;;;;;11.97;63.22;102547.63;2062016;28;47762;-58
2021/12/15 03:18:18;;;;;;;;;40.00;31.75;;;;;11.97;63.13;102552.94;2061217;28;48158;-56
2021/12/15 03:19:18;;;;;;;;;28.40;28.00;;;;;11.96;63.24;102548.50;2056160;28;48611;-59
2021/12/15 03:20:19;;;;;;;;;31.50;30.25;;;;;11.97;63.30;102554.72;2059972;28;47977;-58
2021/12/15 03:21:24;;;;;;;;;31.25;27.25;;;;;11.97;63.17;102558.28;2060510;28;48082;-58
2021/12/15 03:22:25;;;;;;;;;33.00;28.80;;;;;11.96;63.20;102552.94;2062258;28;47849;-59
2021/12/15 03:23:30;;;;;;;;;34.50;31.00;;;;;11.97;63.09;102555.63;2061900;28;47414;-56
2021/12/15 03:24:31;;;;;;;;;30.80;28.00;;;;;11.96;63.10;102551.19;2060698;28;49338;-58
2021/12/15 03:25:31;;;;;;;;;30.25;26.75;;;;;11.96;62.94;102556.50;2061387;28;47791;-58
2021/12/15 03:26:39;;;;;;;;;27.00;25.50;;;;;11.98;62.93;102556.50;2059907;28;46391;-58
2021/12/15 03:36:12;;;;;;;;;28.00;25.40;;;;;11.95;63.06;102560.03;2056589;28;47087;-58
2021/12/15 03:37:20;;;;;;;;;29.00;25.80;;;;;11.96;63.25;102561.81;2054081;28;48659;-64
2021/12/15 03:38:21;;;;;;;;;28.40;24.60;;;;;11.95;63.04;102560.03;2061960;28;48130;-59
2021/12/15 03:39:23;;;;;;;;;27.00;25.00;;;;;11.96;63.15;102561.81;2062023;28;47238;-58
2021/12/15 03:40:33;;;;;;;;;31.00;27.20;;;;;11.96;62.98;102561.81;2062178;28;46703;-59
2021/12/15 03:41:33;;;;;;;;;28.20;26.20;;;;;11.98;63.08;102572.47;2060009;28;48395;-62
2021/12/15 03:42:44;;;;;;;;;31.75;30.75;;;;;11.97;63.19;102568.91;2062520;28;48511;-55
2021/12/15 03:43:45;;;;;;;;;28.20;26.80;;;;;11.98;62.94;102567.13;2058881;28;47325;-58
2021/12/15 03:44:47;;;;;;;;;27.60;26.80;;;;;11.97;62.98;102566.25;2062923;28;47820;-54
2021/12/15 03:46:11;;;;;;;;;29.60;28.80;;;;;11.98;62.90;102569.81;2057164;28;46893;-57
2021/12/15 03:47:24;;;;;;;;;30.20;28.40;;;;;11.97;63.00;102565.38;2061279;28;48233;-58
2021/12/15 03:48:30;;;;;;;;;31.20;27.80;;;;;11.98;62.90;102567.13;2061564;28;45780;-58
2021/12/15 03:49:30;;;;;;;;;32.60;30.20;;;;;11.96;63.02;102561.81;2061359;28;46292;-57
2021/12/15 03:50:32;;;;;;;;;28.25;26.25;;;;;11.97;63.00;102568.91;2061853;28;48262;-57
2021/12/15 03:51:32;;;;;;;;;27.60;27.00;;;;;11.97;63.06;102566.25;2052433;28;47796;-57
2021/12/15 03:52:33;;;;;;;;;26.25;26.25;;;;;11.98;62.94;102567.13;2053761;28;47138;-59
2021/12/15 03:53:33;;;;;;;;;31.00;27.25;;;;;11.97;62.79;102568.03;2060995;28;47346;-57
2021/12/15 03:54:34;;;;;;;;;29.50;28.25;;;;;11.98;62.64;102557.38;2061276;28;48183;-57
2021/12/15 03:55:37;;;;;;;;;31.40;28.20;;;;;11.98;62.75;102561.81;2055877;28;48749;-58
2021/12/15 03:56:40;;;;;;;;;27.60;26.00;;;;;11.98;63.14;102567.13;2061883;28;48115;-57
2021/12/15 03:57:41;;;;;;;;;28.20;26.00;;;;;11.98;62.75;102567.13;2060250;28;48723;-58
2021/12/15 03:58:43;;;;;;;;;29.00;27.25;;;;;11.98;62.70;102569.81;2063032;28;45560;-59
2021/12/15 03:59:45;;;;;;;;;26.00;23.40;;;;;11.98;62.94;102564.47;2058813;28;47363;-59
2021/12/15 04:00:51;;;;;;;;;22.00;19.80;;;;;11.98;62.86;102564.47;2060971;28;47766;-56
2021/12/15 04:01:52;;;;;;;;;28.00;25.80;;;;;11.98;62.74;102567.13;2060575;28;47542;-59
2021/12/15 04:02:52;;;;;;;;;26.50;24.00;;;;;11.98;62.83;102562.72;2063162;28;46847;-58
2021/12/15 04:03:55;;;;;;;;;30.00;28.00;;;;;11.98;62.77;102562.72;2058061;28;48340;-58
2021/12/15 04:04:55;;;;;;;;;12.00;11.60;;;;;11.98;62.76;102564.47;2062746;28;47396;-60
2021/12/15 04:05:58;;;;;;;;;31.50;28.50;;;;;11.98;62.83;102567.13;2059547;28;47087;-59
2021/12/15 04:06:59;;;;;;;;;26.00;25.60;;;;;11.98;62.75;102568.03;2063545;28;47459;-58
2021/12/15 04:08:00;;;;;;;;;32.25;27.25;;;;;12.00;62.88;102568.03;2059167;28;47331;-59
2021/12/15 04:09:02;;;;;;;;;27.00;25.50;;;;;11.98;62.59;102568.03;2062035;28;47247;-64
2021/12/15 04:10:05;;;;;;;;;23.40;19.40;;;;;11.98;62.86;102568.03;2060256;28;47808;-57
2021/12/15 04:11:10;;;;;;;;;20.80;19.60;;;;;11.99;62.78;102563.59;2060560;28;47389;-56
2021/12/15 04:12:11;;;;;;;;;29.60;27.00;;;;;12.00;62.69;102568.03;2060879;28;47535;-58
2021/12/15 04:13:13;;;;;;;;;23.60;21.80;;;;;12.00;62.91;102557.38;2061436;28;47437;-57
2021/12/15 04:14:23;;;;;;;;;27.60;24.00;;;;;12.00;62.53;102562.69;2062330;28;48189;-56
2021/12/15 04:15:29;;;;;;;;;29.80;28.40;;;;;12.00;62.54;102566.25;2061579;28;47420;-65
2021/12/15 04:17:31;;;;;;;;;24.60;24.00;;;;;12.01;62.74;102569.78;2064148;28;47355;-60
2021/12/15 04:18:33;;;;;;;;;28.25;25.75;;;;;12.01;62.87;102559.16;2062552;28;47552;-57
2021/12/15 04:19:36;;;;;;;;;20.60;20.20;;;;;12.00;62.60;102557.38;2063498;28;48500;-58
2021/12/15 04:20:38;;;;;;;;;24.00;24.00;;;;;12.01;62.72;102562.69;2062763;28;48134;-59
2021/12/15 04:21:39;;;;;;;;;23.40;23.20;;;;;12.02;62.66;102560.94;2061541;28;46460;-57
2021/12/15 04:22:41;;;;;;;;;26.75;24.25;;;;;12.01;62.71;102562.69;2057203;28;47278;-58
2021/12/15 04:23:57;;;;;;;;;25.60;25.40;;;;;12.01;62.71;102560.03;2063186;28;48082;-58
2021/12/15 04:24:58;;;;;;;;;28.00;26.00;;;;;12.01;62.64;102562.69;2063787;28;47253;-57
2021/12/15 04:25:59;;;;;;;;;26.75;24.25;;;;;12.01;62.49;102557.38;2061357;28;48162;-58
2021/12/15 04:27:00;;;;;;;;;25.40;22.00;;;;;12.02;62.54;102558.28;2059804;28;47408;-58
2021/12/15 04:28:10;;;;;;;;;27.20;25.00;;;;;12.02;62.58;102560.94;2063281;28;47350;-58
2021/12/15 04:29:11;;;;;;;;;24.80;24.80;;;;;12.02;62.66;102552.94;2064140;28;47237;-59
2021/12/15 04:30:12;;;;;;;;;24.00;22.00;;;;;12.03;62.60;102560.03;2063522;28;47157;-58
2021/12/15 04:31:17;;;;;;;;;24.75;24.50;;;;;12.02;62.54;102551.16;2061048;28;47652;-58
2021/12/15 04:32:41;;;;;;;;;27.40;22.60;;;;;12.02;62.29;102560.94;2058424;28;48187;-57
2021/12/15 04:33:54;;;;;;;;;25.40;25.40;;;;;12.02;62.30;102556.50;2054905;28;48219;-59
2021/12/15 04:34:55;;;;;;;;;29.80;26.20;;;;;12.02;62.53;102556.50;2055560;28;47514;-58
2021/12/15 04:35:57;;;;;;;;;27.60;27.60;;;;;12.02;62.67;102559.16;2060369;28;46285;-58
2021/12/15 04:36:57;;;;;;;;;28.40;25.80;;;;;12.03;62.56;102565.38;2059646;28;48154;-55
2021/12/15 04:37:58;;;;;;;;;24.75;23.75;;;;;12.02;62.56;102556.50;2063290;28;46992;-57
2021/12/15 04:39:00;;;;;;;;;33.25;29.50;;;;;12.03;62.61;102562.69;2062461;28;48123;-58
2021/12/15 04:40:03;;;;;;;;;26.00;26.00;;;;;12.03;62.44;102560.03;2063130;28;48482;-58
2021/12/15 04:41:08;;;;;;;;;31.60;27.20;;;;;12.02;62.59;102556.50;2061175;28;47006;-58
2021/12/15 04:42:11;;;;;;;;;28.80;27.00;;;;;12.02;62.42;102558.28;2060664;28;46379;-58
2021/12/15 04:43:12;;;;;;;;;27.00;26.60;;;;;12.01;62.51;102562.69;2063750;28;47870;-58
2021/12/15 04:44:13;;;;;;;;;27.00;26.25;;;;;12.02;62.63;102556.50;2063402;28;47335;-59
2021/12/15 04:45:17;;;;;;;;;25.00;22.60;;;;;12.02;62.44;102559.16;2063606;28;47548;-58
2021/12/15 04:46:17;;;;;;;;;26.60;23.60;;;;;12.02;62.57;102558.28;2059449;28;45714;-58
2021/12/15 04:47:17;;;;;;;;;26.25;26.25;;;;;12.02;62.71;102559.16;2061599;28;46914;-57
2021/12/15 04:48:18;;;;;;;;;24.25;24.25;;;;;12.02;62.43;102564.47;2063339;28;45441;-64
2021/12/15 04:49:19;;;;;;;;;29.25;26.25;;;;;12.03;62.68;102563.59;2063574;28;47630;-59
2021/12/15 04:50:28;;;;;;;;;26.75;23.25;;;;;12.04;62.69;102569.78;2063299;28;48326;-57
2021/12/15 04:51:30;;;;;;;;;15.20;14.60;;;;;12.04;62.44;102567.13;2058029;28;48230;-57
2021/12/15 04:52:32;;;;;;;;;26.80;23.60;;;;;12.04;62.85;102562.69;2058513;28;46935;-64
2021/12/15 04:53:34;;;;;;;;;22.40;22.00;;;;;12.05;62.38;102568.91;2062939;28;47249;-57
2021/12/15 04:54:35;;;;;;;;;24.80;23.60;;;;;12.05;62.51;102563.59;2063251;28;47435;-57
2021/12/15 04:55:38;;;;;;;;;29.25;25.75;;;;;12.05;62.32;102566.25;2062099;28;53075;-58
2021/12/15 04:56:39;;;;;;;;;23.40;23.00;;;;;12.04;62.32;102568.03;2059187;28;48136;-59
2021/12/15 04:57:39;;;;;;;;;21.50;21.50;;;;;12.05;62.38;102574.22;2063003;28;47290;-58
2021/12/15 04:58:40;;;;;;;;;29.75;24.50;;;;;12.05;62.49;102569.78;2063490;28;47379;-59
2021/12/15 04:59:41;;;;;;;;;23.75;23.75;;;;;12.05;62.33;102568.91;2063121;28;47445;-59
2021/12/15 05:00:50;;;;;;;;;22.25;20.50;;;;;12.05;62.30;102572.47;2061494;28;46191;-59
2021/12/15 05:01:51;;;;;;;;;22.00;20.20;;;;;12.05;62.41;102571.56;2058977;28;48279;-64
2021/12/15 05:02:52;;;;;;;;;23.00;23.00;;;;;12.05;62.50;102566.25;2065235;28;47597;-58
2021/12/15 05:03:52;;;;;;;;;19.80;18.20;;;;;12.05;62.24;102572.47;2062498;28;47458;-63
2021/12/15 05:04:53;;;;;;;;;22.50;22.25;;;;;12.05;62.40;102574.22;2061670;28;48398;-58
2021/12/15 05:05:54;;;;;;;;;25.25;23.00;;;;;12.05;62.28;102572.47;2061441;28;47977;-58
2021/12/15 05:06:54;;;;;;;;;24.00;21.50;;;;;12.06;62.23;102576.00;2059038;28;48233;-59
2021/12/15 05:07:57;;;;;;;;;23.00;23.00;;;;;12.06;62.21;102579.56;2061626;28;48198;-58
2021/12/15 05:08:57;;;;;;;;;23.40;21.40;;;;;12.06;62.17;102579.56;2063281;28;47657;-58
2021/12/15 05:09:59;;;;;;;;;22.75;21.75;;;;;12.06;62.24;102574.22;2062419;28;45556;-58
2021/12/15 05:11:00;;;;;;;;;21.20;19.60;;;;;12.07;62.12;102584.03;2061039;28;47260;-57
2021/12/15 05:12:01;;;;;;;;;23.50;21.25;;;;;12.07;62.17;102578.69;2062255;28;47322;-59
2021/12/15 05:13:02;;;;;;;;;21.75;18.75;;;;;12.07;62.09;102581.34;2063017;28;48452;-57
2021/12/15 05:14:03;;;;;;;;;24.00;21.50;;;;;12.08;61.99;102585.78;2063686;28;46350;-58
2021/12/15 05:15:06;;;;;;;;;24.00;21.40;;;;;12.07;62.10;102581.34;2063445;28;47235;-59
2021/12/15 05:16:06;;;;;;;;;19.40;19.20;;;;;12.07;62.16;102585.78;2058278;28;48062;-57
2021/12/15 05:17:07;;;;;;;;;27.00;24.25;;;;;12.06;62.08;102581.31;2063502;28;47118;-58
2021/12/15 05:18:08;;;;;;;;;21.25;21.00;;;;;12.05;62.05;102585.75;2058755;28;48371;-58
2021/12/15 05:19:08;;;;;;;;;23.20;19.80;;;;;12.06;62.34;102597.28;2064009;28;46684;-59